Time;durP1;ratioP1;P1;durP2;ratioP2;P2;SDS_P1;SDS_P2;PMS_P1;PMS_P2;Temp;Humidity;BMP_temperature;BMP_pressure;BME280_temperature;BME280_humidity;BME280_pressure;Samples;Min_cycle;Max_cycle;Signal;HPM_P1;HPM_P2
2023/07/06 00:00:13;;;;;;;;;;;;;;;13.44;100.00;101563.22;5081246;28;19921;-48
2023/07/06 00:02:39;;;;;;;;;;;;;;;13.42;100.00;101555.44;5079197;28;19934;-51
2023/07/06 00:05:04;;;;;;;;;;;;;;;13.44;100.00;101563.22;5081668;28;19927;-48
2023/07/06 00:07:29;;;;;;;;;;;;;;;13.44;100.00;101563.22;5078464;28;19924;-49
2023/07/06 00:09:55;;;;;;;;;;;;;;;13.40;100.00;101565.69;5079357;28;20550;-49
2023/07/06 00:12:23;;;;;;;;;;;;;;;13.40;100.00;101568.28;5077048;28;20565;-48
2023/07/06 00:14:50;;;;;;;;;;;;;;;13.35;100.00;101562.13;5081852;28;19928;-52
2023/07/06 00:17:16;;;;;;;;;;;;;;;13.33;100.00;101563.78;5077877;28;20105;-48
2023/07/06 00:19:41;;;;;;;;;;;;;;;13.29;100.00;101564.56;5081525;28;19954;-50
2023/07/06 00:22:07;;;;;;;;;;;;;;;13.27;100.00;101565.31;5082117;28;19920;-48
2023/07/06 00:24:33;;;;;;;;;;;;;;;13.23;100.00;101569.53;5084978;28;19935;-48
2023/07/06 00:26:58;;;;;;;;;;;;;;;13.20;100.00;101569.41;5086043;28;19912;-50
2023/07/06 00:29:23;;;;;;;;;;;;;;;13.18;100.00;101559.88;5085083;28;20007;-51
2023/07/06 00:31:53;;;;;;;;;;;;;;;13.16;100.00;101575.31;5084650;28;20022;-51
2023/07/06 00:34:19;;;;;;;;;;;;;;;13.12;100.00;101569.19;5085241;28;20400;-50
2023/07/06 00:36:46;;;;;;;;;;;;;;;13.10;100.00;101562.22;5080839;28;19920;-48
2023/07/06 00:39:12;;;;;;;;;;;;;;;13.08;100.00;101566.47;5086811;28;20350;-51
2023/07/06 00:41:38;;;;;;;;;;;;;;;13.06;100.00;101570.72;5102885;28;20020;-51
2023/07/06 00:44:04;;;;;;;;;;;;;;;13.06;100.00;101569.03;5098069;28;19995;-49
2023/07/06 00:46:36;;;;;;;;;;;;;;;13.04;100.00;101570.69;5099421;28;19992;-51
2023/07/06 00:49:03;;;;;;;;;;;;;;;13.00;100.00;101568.84;5096271;28;19916;-51
2023/07/06 00:51:37;;;;;;;;;;;;;;;12.99;100.00;101571.38;5100673;28;19924;-49
2023/07/06 00:54:15;;;;;;;;;;;;;;;13.00;100.00;101571.41;5104118;28;20034;-52
2023/07/06 00:56:43;;;;;;;;;;;;;;;12.98;100.00;101572.19;5104287;28;19928;-50
2023/07/06 00:59:11;;;;;;;;;;;;;;;12.97;100.00;101573.03;5103620;28;19927;-51
2023/07/06 01:01:41;;;;;;;;;;;;;;;12.96;100.00;101577.31;5104120;28;19923;-51
2023/07/06 01:04:08;;;;;;;;;;;;;;;12.96;100.00;101574.72;5105159;28;19916;-52
2023/07/06 01:06:34;;;;;;;;;;;;;;;12.95;100.00;101569.53;5104992;28;19957;-50
2023/07/06 01:09:00;;;;;;;;;;;;;;;12.93;100.00;101574.66;5103616;28;19931;-50
2023/07/06 01:11:28;;;;;;;;;;;;;;;12.89;100.00;101563.34;5103218;27;19920;-50
2023/07/06 01:13:53;;;;;;;;;;;;;;;12.87;100.00;101565.03;5101738;28;19973;-51
2023/07/06 01:16:31;;;;;;;;;;;;;;;12.84;100.00;101569.19;5101697;28;20340;-49
2023/07/06 01:18:57;;;;;;;;;;;;;;;12.79;100.00;101574.22;5103001;27;20386;-50
2023/07/06 01:21:42;;;;;;;;;;;;;;;12.75;100.00;101562.06;5102455;27;19915;-49
2023/07/06 01:24:10;;;;;;;;;;;;;;;12.73;100.00;101570.56;5107001;28;20298;-49
2023/07/06 01:26:39;;;;;;;;;;;;;;;12.67;100.00;101575.56;5102015;27;20376;-51
2023/07/06 01:29:04;;;;;;;;;;;;;;;12.62;100.00;101567.69;5104006;27;19912;-49
2023/07/06 01:31:36;;;;;;;;;;;;;;;12.57;100.00;101570.13;5108984;27;19931;-48
2023/07/06 01:34:14;;;;;;;;;;;;;;;12.52;100.00;101581.13;5103569;28;19934;-49
2023/07/06 01:36:57;;;;;;;;;;;;;;;12.45;100.00;101582.63;5083315;28;20406;-50
2023/07/06 01:39:23;;;;;;;;;;;;;;;12.41;100.00;101574.75;5095045;28;19924;-47
2023/07/06 01:42:18;;;;;;;;;;;;;;;12.35;100.00;101570.25;5092505;28;20018;-49
2023/07/06 01:44:47;;;;;;;;;;;;;;;12.28;100.00;101560.59;5085885;28;19924;-51
2023/07/06 01:47:14;;;;;;;;;;;;;;;12.23;100.00;101569.88;5086376;28;20356;-49
2023/07/06 01:49:39;;;;;;;;;;;;;;;12.19;100.00;101561.16;5075147;28;20367;-52
2023/07/06 01:52:05;;;;;;;;;;;;;;;12.12;100.00;101561.78;5092144;28;19943;-51
2023/07/06 01:54:41;;;;;;;;;;;;;;;12.13;100.00;101565.22;5086653;28;19919;-48
2023/07/06 01:57:13;;;;;;;;;;;;;;;12.08;100.00;101572.84;5086506;28;19916;-50
2023/07/06 01:59:39;;;;;;;;;;;;;;;12.05;100.00;101568.44;5083470;28;19920;-50
2023/07/06 02:02:07;;;;;;;;;;;;;;;12.02;100.00;101572.63;5084206;28;19924;-52
2023/07/06 02:04:33;;;;;;;;;;;;;;;11.97;100.00;101569.91;5087781;28;19928;-49
2023/07/06 02:07:01;;;;;;;;;;;;;;;11.93;100.00;101572.31;5085480;28;19967;-49
2023/07/06 02:09:26;;;;;;;;;;;;;;;11.91;100.00;101572.25;5088162;28;19954;-51
2023/07/06 02:11:52;;;;;;;;;;;;;;;11.88;100.00;101573.84;5080343;28;19967;-48
2023/07/06 02:14:18;;;;;;;;;;;;;;;11.86;100.00;101578.09;5082151;28;19973;-47
2023/07/06 02:16:43;;;;;;;;;;;;;;;11.85;100.00;101573.75;5084797;28;19920;-49
2023/07/06 02:19:08;;;;;;;;;;;;;;;11.85;100.00;101578.91;5082122;28;19947;-48
2023/07/06 02:21:34;;;;;;;;;;;;;;;11.79;100.00;101575.25;5085667;28;20327;-48
2023/07/06 02:23:59;;;;;;;;;;;;;;;11.78;100.00;101572.63;5085137;28;20002;-49
2023/07/06 02:26:25;;;;;;;;;;;;;;;11.75;100.00;101565.66;5082160;28;19924;-50
2023/07/06 02:28:52;;;;;;;;;;;;;;;11.75;100.00;101567.38;5088390;28;19915;-47
2023/07/06 02:31:18;;;;;;;;;;;;;;;11.74;100.00;101557.88;5091722;28;20374;-48
2023/07/06 02:33:44;;;;;;;;;;;;;;;11.73;100.00;101566.44;5084626;28;19950;-46
2023/07/06 02:36:09;;;;;;;;;;;;;;;11.70;100.00;101563.75;5082605;28;20360;-48
2023/07/06 02:38:36;;;;;;;;;;;;;;;11.67;100.00;101561.97;5066150;28;20016;-48
2023/07/06 02:41:04;;;;;;;;;;;;;;;11.64;100.00;101564.41;5088195;28;19985;-48
2023/07/06 02:43:29;;;;;;;;;;;;;;;11.64;100.00;101559.25;5090495;28;19924;-47
2023/07/06 02:45:55;;;;;;;;;;;;;;;11.63;100.00;101562.66;5086650;28;19935;-48
2023/07/06 02:48:20;;;;;;;;;;;;;;;11.61;100.00;101564.31;5083814;28;19924;-49
2023/07/06 02:50:51;;;;;;;;;;;;;;;11.60;100.00;101564.28;5084001;28;19994;-48
2023/07/06 02:53:17;;;;;;;;;;;;;;;11.61;100.00;101561.75;5084857;28;19924;-47
2023/07/06 02:55:44;;;;;;;;;;;;;;;11.63;100.00;101562.66;5091440;28;20290;-48
2023/07/06 02:58:09;;;;;;;;;;;;;;;11.66;100.00;101567.06;5093903;28;19916;-51
2023/07/06 03:00:35;;;;;;;;;;;;;;;11.66;100.00;101567.06;5087130;28;19920;-49
2023/07/06 03:03:01;;;;;;;;;;;;;;;11.70;100.00;101576.63;5089765;28;19920;-50
2023/07/06 03:05:26;;;;;;;;;;;;;;;11.72;100.00;101570.72;5097002;28;19924;-49
2023/07/06 03:07:52;;;;;;;;;;;;;;;11.74;100.00;101565.63;5078192;28;20010;-47
2023/07/06 03:10:19;;;;;;;;;;;;;;;11.77;100.00;101561.47;5086705;28;19970;-50
2023/07/06 03:12:44;;;;;;;;;;;;;;;11.80;100.00;101569.28;5086228;28;20390;-46
2023/07/06 03:15:10;;;;;;;;;;;;;;;11.81;100.00;101570.19;5090929;28;19914;-47
2023/07/06 03:17:36;;;;;;;;;;;;;;;11.83;100.00;101573.72;5090053;28;20387;-46
2023/07/06 03:20:10;;;;;;;;;;;;;;;11.85;100.00;101579.78;5087932;28;19920;-50
2023/07/06 03:22:36;;;;;;;;;;;;;;;11.88;100.00;101579.00;5086128;28;20431;-49
2023/07/06 03:25:01;;;;;;;;;;;;;;;11.89;100.00;101581.66;5089236;28;19920;-48
2023/07/06 03:27:26;;;;;;;;;;;;;;;11.94;100.00;101581.78;5090542;28;20289;-51
2023/07/06 03:29:52;;;;;;;;;;;;;;;11.94;100.00;101582.66;5089022;28;19927;-51
2023/07/06 03:32:18;;;;;;;;;;;;;;;11.97;100.00;101581.91;5092329;28;20034;-49
2023/07/06 03:34:45;;;;;;;;;;;;;;;12.01;100.00;101594.06;5091083;28;19978;-50
2023/07/06 03:37:10;;;;;;;;;;;;;;;12.02;100.00;101593.25;5087409;28;19951;-50
2023/07/06 03:39:36;;;;;;;;;;;;;;;12.04;100.00;101589.88;5097320;28;19958;-51
2023/07/06 03:42:02;;;;;;;;;;;;;;;12.04;100.00;101591.59;5082871;28;20027;-50
2023/07/06 03:44:27;;;;;;;;;;;;;;;12.06;100.00;101595.97;5101493;28;19924;-49
2023/07/06 03:46:52;;;;;;;;;;;;;;;12.11;100.00;101601.28;5091930;28;19920;-50
2023/07/06 03:49:18;;;;;;;;;;;;;;;12.15;100.00;101599.69;5095751;28;19927;-48
2023/07/06 03:51:46;;;;;;;;;;;;;;;12.14;100.00;101601.41;5100469;28;19935;-46
2023/07/06 03:54:11;;;;;;;;;;;;;;;12.16;100.00;101607.47;5084499;28;19954;-49
2023/07/06 03:56:37;;;;;;;;;;;;;;;12.19;100.00;101602.41;5094066;28;19958;-50
2023/07/06 03:59:02;;;;;;;;;;;;;;;12.21;100.00;101603.34;5094985;28;19924;-48
2023/07/06 04:01:29;;;;;;;;;;;;;;;12.25;100.00;101606.88;5083752;28;19916;-51
2023/07/06 04:03:55;;;;;;;;;;;;;;;12.26;100.00;101613.81;5092275;28;20401;-49
2023/07/06 04:06:22;;;;;;;;;;;;;;;12.28;100.00;101613.03;5086408;28;19963;-47
2023/07/06 04:08:47;;;;;;;;;;;;;;;12.27;100.00;101616.44;5096038;28;19919;-49
2023/07/06 04:11:13;;;;;;;;;;;;;;;12.28;100.00;101612.16;5101555;28;19965;-49
2023/07/06 04:13:38;;;;;;;;;;;;;;;12.30;100.00;101616.53;5106487;28;19923;-47
2023/07/06 04:16:05;;;;;;;;;;;;;;;12.29;100.00;101609.63;5081035;28;20386;-47
2023/07/06 04:18:31;;;;;;;;;;;;;;;12.32;100.00;101614.03;5098202;28;19920;-46
2023/07/06 04:20:58;;;;;;;;;;;;;;;12.32;100.00;101621.75;5094211;28;19919;-47
2023/07/06 04:23:23;;;;;;;;;;;;;;;12.32;100.00;101621.75;5073553;28;19923;-48
2023/07/06 04:25:49;;;;;;;;;;;;;;;12.32;100.00;101624.34;5101139;28;19939;-50
2023/07/06 04:28:14;;;;;;;;;;;;;;;12.33;100.00;101616.66;5099233;28;19924;-50
2023/07/06 04:30:40;;;;;;;;;;;;;;;12.35;100.00;101620.13;5087623;28;19920;-49
2023/07/06 04:33:06;;;;;;;;;;;;;;;12.39;100.00;101623.72;5092484;28;19924;-52
2023/07/06 04:35:32;;;;;;;;;;;;;;;12.42;100.00;101621.22;5090244;28;19924;-49
2023/07/06 04:37:59;;;;;;;;;;;;;;;12.47;100.00;101626.53;5098106;28;19923;-51
2023/07/06 04:40:26;;;;;;;;;;;;;;;12.51;100.00;101628.38;5093000;28;19928;-51
2023/07/06 04:42:52;;;;;;;;;;;;;;;12.54;100.00;101626.78;5102282;28;19958;-50
2023/07/06 04:45:18;;;;;;;;;;;;;;;12.59;100.00;101639.81;5103399;28;19923;-50
2023/07/06 04:47:44;;;;;;;;;;;;;;;12.60;100.00;101642.44;5108538;28;20010;-50
2023/07/06 04:50:11;;;;;;;;;;;;;;;12.64;100.00;101647.72;5099398;28;20009;-52
2023/07/06 04:52:39;;;;;;;;;;;;;;;12.67;100.00;101637.47;5102102;28;20301;-50
2023/07/06 04:55:05;;;;;;;;;;;;;;;12.70;100.00;101638.47;5100414;28;20549;-48
2023/07/06 04:57:31;;;;;;;;;;;;;;;12.74;100.00;101639.41;5103946;28;19926;-46
2023/07/06 04:59:56;;;;;;;;;;;;;;;12.75;100.00;101644.66;5104476;28;19965;-47
2023/07/06 05:02:22;;;;;;;;;;;;;;;12.75;100.00;101643.78;5104191;28;19923;-46
2023/07/06 05:04:48;;;;;;;;;;;;;;;12.81;100.00;101644.84;5109707;27;21114;-46
2023/07/06 05:07:14;;;;;;;;;;;;;;;12.88;100.00;101643.34;5111109;27;19974;-47
2023/07/06 05:09:40;;;;;;;;;;;;;;;12.96;100.00;101648.72;5111398;27;19920;-46
2023/07/06 05:12:06;;;;;;;;;;;;;;;13.06;100.00;101653.34;5108459;28;19947;-45
2023/07/06 05:14:33;;;;;;;;;;;;;;;13.19;100.00;101649.44;5113603;27;20389;-49
2023/07/06 05:16:59;;;;;;;;;;;;;;;13.33;100.00;101654.19;5112435;27;19945;-48
2023/07/06 05:19:24;;;;;;;;;;;;;;;13.65;100.00;101646.47;5110928;27;19915;-49
2023/07/06 05:21:49;;;;;;;;;;;;;;;13.93;100.00;101648.13;5116219;27;19920;-48
2023/07/06 05:24:14;;;;;;;;;;;;;;;14.34;100.00;101641.44;5103524;27;19994;-52
2023/07/06 05:26:40;;;;;;;;;;;;;;;14.49;100.00;101652.19;5107327;27;20010;-48
2023/07/06 05:29:05;;;;;;;;;;;;;;;14.46;100.00;101656.38;5113250;27;20377;-51
2023/07/06 05:31:31;;;;;;;;;;;;;;;14.41;100.00;101650.22;5111812;27;20395;-50
2023/07/06 05:33:56;;;;;;;;;;;;;;;14.40;100.00;101657.09;5114136;27;19920;-49
2023/07/06 05:36:21;;;;;;;;;;;;;;;14.40;100.00;101651.94;5110414;27;19922;-49
2023/07/06 05:38:46;;;;;;;;;;;;;;;14.51;100.00;101656.53;5113796;27;19950;-49
2023/07/06 05:41:12;;;;;;;;;;;;;;;14.56;100.00;101657.50;5096031;28;19980;-50
2023/07/06 05:43:37;;;;;;;;;;;;;;;14.63;100.00;101659.44;5079306;28;19967;-49
2023/07/06 05:46:02;;;;;;;;;;;;;;;14.69;100.00;101667.34;5064526;28;19920;-50
2023/07/06 05:48:28;;;;;;;;;;;;;;;14.65;100.00;101658.63;5056671;28;19947;-51
2023/07/06 05:50:54;;;;;;;;;;;;;;;14.56;100.00;101663.59;5081854;28;19927;-49
2023/07/06 05:53:19;;;;;;;;;;;;;;;14.52;100.00;101666.06;5073862;28;19924;-50
2023/07/06 05:55:44;;;;;;;;;;;;;;;14.49;100.00;101664.25;5093777;28;20508;-50
2023/07/06 05:58:10;;;;;;;;;;;;;;;14.51;100.00;101661.72;5083643;28;20369;-48
2023/07/06 06:00:38;;;;;;;;;;;;;;;14.63;100.00;101675.84;5096877;28;19912;-51
2023/07/06 06:03:03;;;;;;;;;;;;;;;14.78;100.00;101664.97;5086559;28;19924;-51
2023/07/06 06:05:29;;;;;;;;;;;;;;;14.90;100.00;101675.59;5086297;28;19927;-51
2023/07/06 06:07:55;;;;;;;;;;;;;;;15.05;100.00;101669.91;5083880;28;19925;-49
2023/07/06 06:10:22;;;;;;;;;;;;;;;15.22;100.00;101678.03;5087841;28;19992;-48
2023/07/06 06:12:48;;;;;;;;;;;;;;;15.51;100.00;101676.94;5069060;28;20040;-48
2023/07/06 06:15:15;;;;;;;;;;;;;;;15.91;98.51;101677.78;5094791;28;20014;-47
2023/07/06 06:17:40;;;;;;;;;;;;;;;16.09;95.89;101685.03;5085966;28;19925;-47
2023/07/06 06:20:08;;;;;;;;;;;;;;;16.06;96.24;101690.16;5087714;28;20011;-46
2023/07/06 06:22:34;;;;;;;;;;;;;;;16.02;96.49;101690.97;5081465;28;19921;-50
2023/07/06 06:24:59;;;;;;;;;;;;;;;16.11;96.58;101692.84;5088862;28;19927;-57
2023/07/06 06:27:25;;;;;;;;;;;;;;;16.33;94.57;101695.00;5072881;28;19936;-57
2023/07/06 06:29:50;;;;;;;;;;;;;;;16.58;96.02;101702.34;5088778;28;20329;-57
2023/07/06 06:32:15;;;;;;;;;;;;;;;16.77;92.79;101694.88;5080874;28;19936;-57
2023/07/06 06:34:41;;;;;;;;;;;;;;;16.96;92.97;101699.50;5080313;28;19999;-56
2023/07/06 06:37:08;;;;;;;;;;;;;;;17.18;92.24;101711.13;5082510;28;19928;-57
2023/07/06 06:39:33;;;;;;;;;;;;;;;17.38;91.74;101709.66;5070759;28;20010;-56
2023/07/06 06:42:00;;;;;;;;;;;;;;;17.65;93.06;101718.66;5076917;28;19919;-57
2023/07/06 06:44:28;;;;;;;;;;;;;;;17.99;88.81;101709.56;5078453;28;19920;-58
2023/07/06 06:46:53;;;;;;;;;;;;;;;18.16;84.61;101714.97;5072041;28;20303;-57
2023/07/06 06:49:18;;;;;;;;;;;;;;;18.31;89.96;101712.50;5068346;28;19928;-57
2023/07/06 06:51:44;;;;;;;;;;;;;;;18.48;83.53;101721.34;5081813;28;19963;-57
2023/07/06 06:54:10;;;;;;;;;;;;;;;18.71;87.41;101718.97;5067897;28;19924;-52
2023/07/06 06:56:35;;;;;;;;;;;;;;;18.75;81.84;101728.56;5072889;28;19927;-50
2023/07/06 06:59:00;;;;;;;;;;;;;;;18.77;83.86;101727.72;5077392;28;20512;-52
2023/07/06 07:01:26;;;;;;;;;;;;;;;18.88;84.26;101729.53;5076099;28;19928;-51
2023/07/06 07:03:51;;;;;;;;;;;;;;;19.00;83.34;101728.75;5063239;28;20291;-51
2023/07/06 07:06:17;;;;;;;;;;;;;;;19.14;84.70;101727.09;5063606;28;19924;-52
2023/07/06 07:08:57;;;;;;;;;;;;;;;19.37;84.69;101729.00;5061339;28;19928;-52
2023/07/06 07:11:22;;;;;;;;;;;;;;;19.35;80.99;101739.38;5070536;28;19916;-51
2023/07/06 07:13:48;;;;;;;;;;;;;;;19.37;81.27;101739.44;5062747;28;19978;-51
2023/07/06 07:16:14;;;;;;;;;;;;;;;19.42;82.95;101735.13;5056570;28;19927;-51
2023/07/06 07:18:39;;;;;;;;;;;;;;;19.42;82.47;101735.13;5079420;28;19924;-52
2023/07/06 07:21:06;;;;;;;;;;;;;;;19.58;82.33;101741.25;5078725;28;19938;-50
2023/07/06 07:23:42;;;;;;;;;;;;;;;19.43;81.21;101748.16;5068014;28;19927;-51
2023/07/06 07:26:08;;;;;;;;;;;;;;;19.21;81.24;101749.75;5071215;28;20031;-51
2023/07/06 07:28:33;;;;;;;;;;;;;;;19.20;82.23;101757.56;5078816;28;19935;-50
2023/07/06 07:30:59;;;;;;;;;;;;;;;19.23;82.14;101754.97;5079536;28;19920;-51
2023/07/06 07:33:27;;;;;;;;;;;;;;;19.32;79.04;101762.00;5079267;28;19920;-53
2023/07/06 07:35:52;;;;;;;;;;;;;;;19.38;81.99;101759.41;5073063;28;20613;-50
2023/07/06 07:38:19;;;;;;;;;;;;;;;19.26;81.36;101755.88;5063850;28;19930;-49
2023/07/06 07:40:54;;;;;;;;;;;;;;;19.03;80.65;101749.63;5073283;28;19939;-51
2023/07/06 07:43:20;;;;;;;;;;;;;;;18.86;82.37;101746.88;5074861;28;19920;-51
2023/07/06 07:45:45;;;;;;;;;;;;;;;18.78;81.72;101752.91;5078002;28;20018;-51
2023/07/06 07:48:10;;;;;;;;;;;;;;;18.84;84.36;101758.16;5053256;28;19970;-49
2023/07/06 07:50:36;;;;;;;;;;;;;;;19.07;83.77;101761.81;5073330;28;20019;-50
2023/07/06 07:53:02;;;;;;;;;;;;;;;19.10;82.65;101760.97;5071576;28;20053;-47
2023/07/06 07:55:27;;;;;;;;;;;;;;;19.11;82.29;101765.31;5079180;28;19931;-49
2023/07/06 07:57:53;;;;;;;;;;;;;;;19.09;80.70;101767.03;5055260;28;19928;-49
2023/07/06 08:00:18;;;;;;;;;;;;;;;19.13;81.72;101763.59;5071710;28;19977;-50
2023/07/06 08:02:45;;;;;;;;;;;;;;;19.14;81.95;101774.03;5084355;28;20015;-58
2023/07/06 08:05:11;;;;;;;;;;;;;;;19.11;80.54;101774.03;5062413;28;19931;-58
2023/07/06 08:07:36;;;;;;;;;;;;;;;18.84;80.98;101769.44;5085154;28;19924;-57
2023/07/06 08:10:02;;;;;;;;;;;;;;;18.74;81.87;101771.09;5071395;28;19920;-58
2023/07/06 08:12:27;;;;;;;;;;;;;;;18.67;82.00;101771.91;5086655;28;19924;-58
2023/07/06 08:14:53;;;;;;;;;;;;;;;18.68;81.75;101772.78;5074208;28;20290;-58
2023/07/06 08:17:18;;;;;;;;;;;;;;;18.62;82.55;101773.56;5078095;28;20358;-58
2023/07/06 08:19:45;;;;;;;;;;;;;;;18.70;82.28;101764.13;5079977;28;19922;-58
2023/07/06 08:22:10;;;;;;;;;;;;;;;19.00;81.54;101770.47;5061709;28;19928;-58
2023/07/06 08:24:38;;;;;;;;;;;;;;;19.19;82.62;101767.13;5067825;28;19926;-58
2023/07/06 08:27:03;;;;;;;;;;;;;;;19.64;79.98;101776.09;5072806;28;20275;-58
2023/07/06 08:29:31;;;;;;;;;;;;;;;20.05;78.38;101776.28;5061134;28;19920;-57
2023/07/06 08:31:58;;;;;;;;;;;;;;;20.46;78.22;101777.31;5072522;28;20341;-58
2023/07/06 08:34:26;;;;;;;;;;;;;;;20.73;74.49;101782.56;5080560;28;19920;-58
2023/07/06 08:36:51;;;;;;;;;;;;;;;20.97;74.98;101780.81;5084679;28;19959;-57
2023/07/06 08:39:16;;;;;;;;;;;;;;;21.04;75.05;101778.19;5086319;28;20013;-59
2023/07/06 08:41:44;;;;;;;;;;;;;;;21.08;72.55;101784.31;5088637;28;19920;-57
2023/07/06 08:44:11;;;;;;;;;;;;;;;21.07;72.71;101779.97;5091939;28;19916;-57
2023/07/06 08:46:38;;;;;;;;;;;;;;;21.20;74.80;101786.91;5093113;28;19962;-59
2023/07/06 08:49:08;;;;;;;;;;;;;;;21.50;72.61;101793.00;5082656;28;19960;-58
2023/07/06 08:51:35;;;;;;;;;;;;;;;21.67;72.82;101788.59;5076787;28;20023;-57
2023/07/06 08:54:02;;;;;;;;;;;;;;;21.71;71.79;101795.56;5088451;28;19930;-57
2023/07/06 08:56:28;;;;;;;;;;;;;;;21.73;69.48;101792.97;5081301;28;20458;-57
2023/07/06 08:58:55;;;;;;;;;;;;;;;21.84;70.02;101788.53;5084003;28;19928;-59
2023/07/06 09:01:22;;;;;;;;;;;;;;;22.03;67.94;101791.97;5082304;28;20002;-56
2023/07/06 09:03:50;;;;;;;;;;;;;;;22.07;66.91;101798.91;5089849;28;20006;-57
2023/07/06 09:06:21;;;;;;;;;;;;;;;21.94;67.61;101790.25;5087707;28;20030;-48
2023/07/06 09:08:48;;;;;;;;;;;;;;;21.93;67.38;101801.59;5083478;28;20002;-47
2023/07/06 09:11:13;;;;;;;;;;;;;;;21.87;66.48;101797.25;5086865;28;19920;-49
2023/07/06 09:13:42;;;;;;;;;;;;;;;21.87;66.48;101797.25;5091469;28;19935;-46
2023/07/06 09:16:10;;;;;;;;;;;;;;;21.90;68.77;101799.88;5076116;28;19920;-47
2023/07/06 09:18:36;;;;;;;;;;;;;;;21.90;69.52;101807.72;5089872;28;19919;-47
2023/07/06 09:21:02;;;;;;;;;;;;;;;21.77;68.90;101800.78;5081732;28;19946;-49
2023/07/06 09:23:27;;;;;;;;;;;;;;;21.59;67.93;101803.44;5082603;28;19924;-47
2023/07/06 09:25:54;;;;;;;;;;;;;;;21.42;68.70;101796.53;5083131;28;21335;-47
2023/07/06 09:28:29;;;;;;;;;;;;;;;21.37;70.34;101800.88;5085905;28;19946;-45
2023/07/06 09:31:08;;;;;;;;;;;;;;;21.28;67.16;101798.22;5088537;28;19923;-46
2023/07/06 09:33:34;;;;;;;;;;;;;;;21.22;70.45;101797.38;5082064;28;19928;-48
2023/07/06 09:36:00;;;;;;;;;;;;;;;20.95;69.34;101796.53;5082394;28;20290;-49
2023/07/06 09:38:27;;;;;;;;;;;;;;;20.75;70.44;101796.53;5064377;28;19939;-49
2023/07/06 09:40:53;;;;;;;;;;;;;;;20.57;69.42;101799.13;5078567;28;19984;-47
2023/07/06 09:43:21;;;;;;;;;;;;;;;20.42;69.86;101804.25;5071283;28;19928;-51
2023/07/06 09:45:48;;;;;;;;;;;;;;;20.24;69.26;101808.56;5079753;28;19928;-53
2023/07/06 09:48:36;;;;;;;;;;;;;;;20.05;70.98;101806.75;5078275;28;20322;-52
2023/07/06 09:51:13;;;;;;;;;;;;;;;19.94;70.54;101803.22;5067895;28;19982;-52
2023/07/06 09:53:48;;;;;;;;;;;;;;;19.93;71.21;101804.09;5069493;28;19920;-56
2023/07/06 09:56:14;;;;;;;;;;;;;;;19.79;71.23;101804.03;5062613;28;19924;-57
2023/07/06 09:58:41;;;;;;;;;;;;;;;19.68;71.80;101803.97;5075344;28;19916;-56
2023/07/06 10:01:14;;;;;;;;;;;;;;;19.77;70.73;101811.84;5082400;28;19928;-56
2023/07/06 10:03:39;;;;;;;;;;;;;;;19.96;71.26;101798.88;5060742;28;20507;-56
2023/07/06 10:06:12;;;;;;;;;;;;;;;20.31;68.64;101793.78;5063416;28;19917;-57
2023/07/06 10:08:50;;;;;;;;;;;;;;;20.53;69.44;101803.44;5073682;28;19916;-57
2023/07/06 10:11:15;;;;;;;;;;;;;;;20.91;67.17;101801.75;5075109;28;19931;-54
2023/07/06 10:13:40;;;;;;;;;;;;;;;20.98;67.29;101801.75;5073328;28;19920;-55
2023/07/06 10:16:15;;;;;;;;;;;;;;;21.04;67.02;101798.25;5062877;28;20374;-57
2023/07/06 10:18:41;;;;;;;;;;;;;;;21.14;66.76;101800.88;5081276;28;19966;-57
2023/07/06 10:21:16;;;;;;;;;;;;;;;21.45;64.74;101800.84;5079589;28;19974;-57
2023/07/06 10:23:46;;;;;;;;;;;;;;;21.67;63.37;101799.06;5079509;28;19964;-56
2023/07/06 10:26:33;;;;;;;;;;;;;;;21.95;62.37;101799.81;5076009;28;19969;-57
2023/07/06 10:29:08;;;;;;;;;;;;;;;21.89;58.04;101802.47;5094097;28;20098;-57
2023/07/06 10:31:54;;;;;;;;;;;;;;;21.67;61.05;101801.69;5085459;28;19959;-58
2023/07/06 10:34:27;;;;;;;;;;;;;;;21.66;62.20;101794.72;5056766;28;19924;-57
2023/07/06 10:36:52;;;;;;;;;;;;;;;21.65;57.58;101787.72;5065128;28;20420;-58
2023/07/06 10:39:23;;;;;;;;;;;;;;;21.63;60.57;101789.47;5069221;28;20093;-59
2023/07/06 10:41:58;;;;;;;;;;;;;;;21.81;58.95;101791.16;5104600;27;19915;-60
2023/07/06 10:44:46;;;;;;;;;;;;;;;21.88;58.85;101791.13;5098212;27;19926;-58
2023/07/06 10:47:32;;;;;;;;;;;;;;;21.93;56.84;101789.38;5099895;27;19937;-58
2023/07/06 10:50:14;;;;;;;;;;;;;;;22.09;56.48;101794.56;5099578;27;19920;-58
2023/07/06 10:52:41;;;;;;;;;;;;;;;22.07;56.46;101788.44;5102415;27;19924;-58
2023/07/06 10:55:27;;;;;;;;;;;;;;;22.23;56.72;101784.91;5101009;27;19924;-58
2023/07/06 10:57:53;;;;;;;;;;;;;;;22.34;53.29;101788.34;5078504;28;19930;-58
2023/07/06 11:00:20;;;;;;;;;;;;;;;22.47;55.56;101792.63;5077204;28;19920;-58
2023/07/06 11:02:45;;;;;;;;;;;;;;;22.67;53.13;101800.34;5073366;28;19927;-57
2023/07/06 11:05:19;;;;;;;;;;;;;;;22.64;56.64;101799.50;5076146;27;19927;-58
2023/07/06 11:07:52;;;;;;;;;;;;;;;22.66;55.40;101798.59;5077352;28;19931;-57
2023/07/06 11:10:21;;;;;;;;;;;;;;;22.61;55.08;101807.38;5075074;28;19935;-59
2023/07/06 11:12:50;;;;;;;;;;;;;;;22.59;56.84;101804.78;5077164;28;21760;-58
2023/07/06 11:15:16;;;;;;;;;;;;;;;22.39;54.01;101815.38;5090593;27;19924;-57
2023/07/06 11:17:48;;;;;;;;;;;;;;;22.26;55.01;101818.06;5060664;28;19932;-59
2023/07/06 11:20:22;;;;;;;;;;;;;;;22.14;56.84;101813.75;5098583;27;20362;-59
2023/07/06 11:27:55;;;;;;;;;;;;;;;21.55;55.37;101831.38;5047590;28;19936;-58
2023/07/06 11:30:47;;;;;;;;;;;;;;;21.47;56.41;101829.63;5049078;28;19929;-58
2023/07/06 11:33:15;;;;;;;;;;;;;;;21.40;56.33;101823.53;5041745;28;19947;-58
2023/07/06 11:35:40;;;;;;;;;;;;;;;21.61;57.19;101827.88;5052651;28;19924;-57
2023/07/06 11:38:25;;;;;;;;;;;;;;;22.01;54.42;101828.63;5025643;28;19996;-58
2023/07/06 11:41:02;;;;;;;;;;;;;;;22.15;56.34;101828.63;5049159;28;20005;-57
2023/07/06 11:43:30;;;;;;;;;;;;;;;22.26;56.99;101826.78;5050724;28;19924;-58
2023/07/06 11:46:01;;;;;;;;;;;;;;;22.28;55.26;101827.66;5048489;28;19935;-58
2023/07/06 11:48:45;;;;;;;;;;;;;;;22.13;56.23;101827.72;5048305;28;19947;-59
2023/07/06 11:51:10;;;;;;;;;;;;;;;22.15;56.73;101834.72;5048756;28;20033;-58
2023/07/06 11:56:32;;;;;;;;;;;;;;;22.68;53.03;101830.91;5049442;28;19931;-57
2023/07/06 11:59:00;;;;;;;;;;;;;;;22.65;53.13;101830.06;5068743;28;19935;-58
2023/07/06 12:01:42;;;;;;;;;;;;;;;22.43;51.58;101838.06;5061712;28;19928;-58
2023/07/06 12:06:34;;;;;;;;;;;;;;;22.38;52.81;101821.47;5022154;28;20397;-58
2023/07/06 12:09:03;;;;;;;;;;;;;;;22.57;54.19;101822.28;5022303;28;19922;-57
2023/07/06 12:11:28;;;;;;;;;;;;;;;22.65;54.79;101830.94;5001993;28;19960;-58
2023/07/06 12:13:55;;;;;;;;;;;;;;;22.74;52.73;101828.25;5018938;28;20039;-58
2023/07/06 12:16:23;;;;;;;;;;;;;;;22.93;54.70;101823.78;5007514;28;20285;-57
2023/07/06 12:18:57;;;;;;;;;;;;;;;23.09;53.77;101821.03;5023636;28;19918;-58
2023/07/06 12:21:31;;;;;;;;;;;;;;;23.22;53.66;101831.38;5020448;28;19939;-57
2023/07/06 12:24:00;;;;;;;;;;;;;;;23.51;53.15;101831.13;5024310;28;20295;-58
2023/07/06 12:26:29;;;;;;;;;;;;;;;23.49;52.19;101832.91;5024209;28;20432;-57
2023/07/06 12:28:57;;;;;;;;;;;;;;;23.55;51.98;101824.97;5024846;28;20032;-58
2023/07/06 12:31:23;;;;;;;;;;;;;;;23.48;47.09;101828.53;5023767;28;19917;-57
2023/07/06 12:33:58;;;;;;;;;;;;;;;23.26;47.38;101834.88;5022049;28;19940;-58
2023/07/06 12:36:33;;;;;;;;;;;;;;;23.19;47.51;101830.56;5021252;28;19925;-59
2023/07/06 12:39:00;;;;;;;;;;;;;;;23.02;48.73;101828.09;5023640;28;20018;-58
2023/07/06 12:41:25;;;;;;;;;;;;;;;23.06;50.56;101829.81;5024827;28;19921;-58
2023/07/06 12:43:53;;;;;;;;;;;;;;;23.30;50.31;101820.84;5023832;28;19939;-59